Time;durP1;ratioP1;P1;durP2;ratioP2;P2;SDS_P1;SDS_P2;PMS_P1;PMS_P2;Temp;Humidity;BMP_temperature;BMP_pressure;BME280_temperature;BME280_humidity;BME280_pressure;Samples;Min_cycle;Max_cycle;Signal;HPM_P1;HPM_P2
2023/05/29 00:02:17;;;;;;;11.70;8.70;;;11.50;99.90;;;;;;5108661;28;20217;-76
2023/05/29 00:04:45;;;;;;;10.63;8.17;;;11.40;99.90;;;;;;5115108;28;20263;-77
2023/05/29 00:07:13;;;;;;;12.23;8.63;;;11.40;99.90;;;;;;5114447;28;20254;-78
2023/05/29 00:09:42;;;;;;;10.57;8.60;;;11.30;99.90;;;;;;5115120;28;20255;-79
2023/05/29 00:12:11;;;;;;;12.10;8.73;;;11.30;99.90;;;;;;5114774;28;20213;-77
2023/05/29 00:14:40;;;;;;;11.37;8.60;;;11.30;99.90;;;;;;5097955;28;20218;-79
2023/05/29 00:17:12;;;;;;;12.70;8.50;;;11.20;99.90;;;;;;5094731;28;20207;-78
2023/05/29 00:19:40;;;;;;;16.07;8.63;;;11.20;99.90;;;;;;5086759;28;20209;-76
2023/05/29 00:22:08;;;;;;;13.40;8.43;;;11.10;99.90;;;;;;5094450;28;20207;-76
2023/05/29 00:24:36;;;;;;;11.30;8.03;;;11.00;99.90;;;;;;5094572;28;20601;-77
2023/05/29 00:27:05;;;;;;;11.47;8.33;;;11.00;99.90;;;;;;5094363;28;20234;-77
2023/05/29 00:29:33;;;;;;;11.03;7.90;;;10.90;99.90;;;;;;5094220;28;20703;-78
2023/05/29 00:32:01;;;;;;;13.33;8.27;;;11.00;99.90;;;;;;5093642;28;20210;-78
2023/05/29 00:34:31;;;;;;;11.77;8.10;;;10.90;99.90;;;;;;5094045;28;20207;-77
2023/05/29 00:36:59;;;;;;;13.37;8.67;;;10.90;99.90;;;;;;5093638;28;20214;-77
2023/05/29 00:39:28;;;;;;;12.17;8.87;;;10.90;99.90;;;;;;5094115;28;20293;-77
2023/05/29 00:41:56;;;;;;;12.27;8.40;;;10.90;99.90;;;;;;5093667;28;20260;-77
2023/05/29 00:44:25;;;;;;;15.23;8.90;;;10.80;99.90;;;;;;5094279;28;20254;-77
2023/05/29 00:46:54;;;;;;;12.63;8.10;;;10.70;99.90;;;;;;5094271;28;20300;-78
2023/05/29 00:49:23;;;;;;;16.00;9.00;;;10.70;99.90;;;;;;5094023;28;20207;-78
2023/05/29 00:51:55;;;;;;;11.87;8.67;;;10.70;99.90;;;;;;5093799;28;20211;-78
2023/05/29 00:54:29;;;;;;;12.17;8.30;;;10.60;99.90;;;;;;5093508;28;20264;-77
2023/05/29 00:56:59;;;;;;;14.03;8.93;;;10.60;99.90;;;;;;5093555;28;20655;-78
2023/05/29 00:59:28;;;;;;;15.30;9.40;;;10.60;99.90;;;;;;5095801;28;20207;-76
2023/05/29 01:01:58;;;;;;;10.80;8.30;;;10.60;99.90;;;;;;5113902;28;20202;-76
2023/05/29 01:04:27;;;;;;;12.43;8.73;;;10.50;99.90;;;;;;5103411;28;20293;-76
2023/05/29 01:06:57;;;;;;;10.97;8.47;;;10.50;99.90;;;;;;5093424;28;20227;-78
2023/05/29 01:09:25;;;;;;;13.43;8.90;;;10.50;99.90;;;;;;5093446;28;20683;-77
2023/05/29 01:12:03;;;;;;;12.77;8.40;;;10.50;99.90;;;;;;5093383;28;20203;-78
2023/05/29 01:14:46;;;;;;;14.77;8.53;;;10.40;99.90;;;;;;5093460;28;20214;-78
2023/05/29 01:17:20;;;;;;;13.43;9.27;;;10.40;99.90;;;;;;5093327;28;20187;-76
2023/05/29 01:20:05;;;;;;;12.73;8.80;;;10.40;99.90;;;;;;5093697;28;20216;-77
2023/05/29 01:23:06;;;;;;;12.90;8.83;;;10.40;99.90;;;;;;5093359;28;20284;-78
2023/05/29 01:25:49;;;;;;;11.80;8.80;;;10.30;99.90;;;;;;5067528;28;20210;-77
2023/05/29 01:28:21;;;;;;;14.47;8.80;;;10.30;99.90;;;;;;5092978;28;20227;-78
2023/05/29 01:30:51;;;;;;;11.83;9.17;;;10.30;99.90;;;;;;5092924;28;20233;-76
2023/05/29 01:33:20;;;;;;;14.10;8.40;;;10.30;99.90;;;;;;5092985;28;20618;-78
2023/05/29 01:35:48;;;;;;;11.97;8.63;;;10.20;99.90;;;;;;5092775;28;20222;-76
2023/05/29 01:38:16;;;;;;;12.27;8.73;;;10.20;99.90;;;;;;5092844;28;20243;-77
2023/05/29 01:40:45;;;;;;;12.63;8.57;;;10.10;99.90;;;;;;5093486;28;20261;-78
2023/05/29 01:43:14;;;;;;;14.47;9.97;;;10.20;99.90;;;;;;5092356;28;20293;-77
2023/05/29 01:45:45;;;;;;;12.57;8.70;;;10.10;99.90;;;;;;5092691;28;20206;-77
2023/05/29 01:48:13;;;;;;;13.97;9.07;;;10.10;99.90;;;;;;5092523;28;20231;-77
2023/05/29 01:50:43;;;;;;;13.60;9.30;;;10.00;99.90;;;;;;5092112;28;20203;-77
2023/05/29 01:53:11;;;;;;;12.97;8.20;;;10.00;99.90;;;;;;5092484;28;20207;-76
2023/05/29 01:55:40;;;;;;;13.60;8.87;;;10.00;99.90;;;;;;5084794;28;20264;-78
2023/05/29 01:58:08;;;;;;;14.23;8.83;;;10.00;99.90;;;;;;5094932;28;20199;-77
2023/05/29 02:00:36;;;;;;;13.33;9.17;;;9.90;99.90;;;;;;5113106;28;20289;-77
2023/05/29 02:03:07;;;;;;;16.00;9.23;;;9.90;99.90;;;;;;5112371;28;20681;-77
2023/05/29 02:05:35;;;;;;;12.40;8.67;;;9.90;99.90;;;;;;5097428;28;20222;-79
2023/05/29 02:08:03;;;;;;;11.83;8.53;;;9.90;99.90;;;;;;5092484;28;20223;-79
2023/05/29 02:10:31;;;;;;;11.80;8.70;;;9.90;99.90;;;;;;5092510;28;20287;-76
2023/05/29 02:12:59;;;;;;;14.60;9.33;;;9.80;99.90;;;;;;5098624;28;20599;-78
2023/05/29 02:15:28;;;;;;;12.47;8.67;;;9.80;99.90;;;;;;5112420;28;20205;-77
2023/05/29 02:17:57;;;;;;;10.77;8.27;;;9.80;99.90;;;;;;5112887;28;20229;-77
2023/05/29 02:20:27;;;;;;;12.97;8.80;;;9.70;99.90;;;;;;5106116;28;20668;-77
2023/05/29 02:22:55;;;;;;;13.03;9.40;;;9.70;99.90;;;;;;5092170;28;20293;-77
2023/05/29 02:25:23;;;;;;;11.37;8.77;;;9.70;99.90;;;;;;5092353;28;20576;-76
2023/05/29 02:27:51;;;;;;;17.07;9.03;;;9.70;99.90;;;;;;5092076;28;20263;-78
2023/05/29 02:30:19;;;;;;;13.67;8.70;;;9.70;99.90;;;;;;5092081;28;20210;-79
2023/05/29 02:32:47;;;;;;;11.73;8.60;;;9.70;99.90;;;;;;5091905;28;20217;-78
2023/05/29 02:35:17;;;;;;;11.90;8.57;;;9.70;99.90;;;;;;5091869;28;20211;-79
2023/05/29 02:37:46;;;;;;;14.80;8.60;;;9.60;99.90;;;;;;5091735;28;20283;-77
2023/05/29 02:40:14;;;;;;;11.63;8.27;;;9.60;99.90;;;;;;5092209;28;20207;-76
2023/05/29 02:42:42;;;;;;;16.30;9.00;;;9.60;99.90;;;;;;5091455;28;20668;-78
2023/05/29 02:45:11;;;;;;;10.73;8.47;;;9.60;99.90;;;;;;5091770;28;20740;-78
2023/05/29 02:47:39;;;;;;;11.60;8.67;;;9.60;99.90;;;;;;5105705;28;20314;-78
2023/05/29 02:50:08;;;;;;;10.60;8.17;;;9.60;99.90;;;;;;5112124;28;20751;-78
2023/05/29 02:52:37;;;;;;;13.27;9.50;;;9.60;99.90;;;;;;5112007;28;20543;-76
2023/05/29 02:55:07;;;;;;;12.67;8.90;;;9.60;99.90;;;;;;5098453;28;20250;-78
2023/05/29 02:57:35;;;;;;;12.87;9.13;;;9.50;99.90;;;;;;5101353;28;20234;-77
2023/05/29 03:00:05;;;;;;;12.80;8.50;;;9.50;99.90;;;;;;5112108;28;20202;-78
2023/05/29 03:02:34;;;;;;;10.87;7.97;;;9.50;99.90;;;;;;5104221;28;20611;-78
2023/05/29 03:05:03;;;;;;;17.30;8.90;;;9.50;99.90;;;;;;5096175;28;20211;-77
2023/05/29 03:07:31;;;;;;;11.30;8.27;;;9.40;99.90;;;;;;5095941;28;20226;-78
2023/05/29 03:09:59;;;;;;;13.07;9.10;;;9.40;99.90;;;;;;5096131;28;20294;-76
2023/05/29 03:12:29;;;;;;;11.73;9.00;;;9.40;99.90;;;;;;5094953;28;20207;-79
2023/05/29 03:14:57;;;;;;;14.57;8.93;;;9.30;99.90;;;;;;5095705;28;20215;-78
2023/05/29 03:17:25;;;;;;;16.50;9.00;;;9.30;99.90;;;;;;5095937;28;20210;-77
2023/05/29 03:19:53;;;;;;;12.23;8.30;;;9.30;99.90;;;;;;5104529;28;20721;-78
2023/05/29 03:22:21;;;;;;;13.43;8.83;;;9.30;99.90;;;;;;5115931;28;20301;-76
2023/05/29 03:24:49;;;;;;;13.80;8.77;;;9.30;99.90;;;;;;5115960;28;20206;-79
2023/05/29 03:27:17;;;;;;;13.37;8.43;;;9.30;99.90;;;;;;5115685;28;20661;-78
2023/05/29 03:29:47;;;;;;;11.23;8.10;;;9.20;99.90;;;;;;5104020;28;20217;-78
2023/05/29 03:32:15;;;;;;;11.87;8.33;;;9.20;99.90;;;;;;5095350;28;20210;-78
2023/05/29 03:34:43;;;;;;;12.20;8.70;;;9.20;99.90;;;;;;5095682;28;20286;-76
2023/05/29 03:37:11;;;;;;;13.13;8.60;;;9.20;99.90;;;;;;5095060;28;20628;-77
2023/05/29 03:39:39;;;;;;;12.30;8.60;;;9.20;99.90;;;;;;5095420;28;20248;-76
2023/05/29 03:42:07;;;;;;;11.37;7.83;;;9.20;99.90;;;;;;5094720;28;20214;-78
2023/05/29 03:44:35;;;;;;;12.23;8.67;;;9.20;99.90;;;;;;5095457;28;20210;-78
2023/05/29 03:47:05;;;;;;;11.57;8.20;;;9.20;99.90;;;;;;5097273;28;20241;-77
2023/05/29 03:49:34;;;;;;;13.00;9.50;;;9.20;99.90;;;;;;5107617;28;20334;-78
2023/05/29 03:52:02;;;;;;;13.27;8.43;;;9.20;99.90;;;;;;5095042;28;20218;-78
2023/05/29 03:54:30;;;;;;;12.27;8.77;;;9.20;99.90;;;;;;5095461;28;20207;-78
2023/05/29 03:56:58;;;;;;;14.13;8.30;;;9.30;99.90;;;;;;5109715;28;20210;-79
2023/05/29 03:59:26;;;;;;;12.10;8.90;;;9.30;99.90;;;;;;5095315;28;20221;-77
2023/05/29 04:01:55;;;;;;;11.30;8.50;;;9.30;99.90;;;;;;5094699;28;20234;-77
2023/05/29 04:04:24;;;;;;;12.17;8.03;;;9.30;99.90;;;;;;5095044;28;20215;-78
2023/05/29 04:06:52;;;;;;;13.77;8.73;;;9.40;99.90;;;;;;5094476;28;20203;-78
2023/05/29 04:09:21;;;;;;;12.53;8.37;;;9.50;99.90;;;;;;5095051;28;20291;-76
2023/05/29 04:11:51;;;;;;;11.27;8.63;;;9.50;99.90;;;;;;5094298;28;20206;-78
2023/05/29 04:14:19;;;;;;;12.70;8.63;;;9.50;99.90;;;;;;5094245;28;20268;-77
2023/05/29 04:16:47;;;;;;;11.77;8.10;;;9.60;99.90;;;;;;5094570;28;20206;-78
2023/05/29 04:19:15;;;;;;;9.90;7.40;;;9.60;99.90;;;;;;5094507;28;20688;-80
2023/05/29 04:21:47;;;;;;;11.13;8.47;;;9.70;99.90;;;;;;5094292;28;20246;-77
2023/05/29 04:24:15;;;;;;;10.30;8.40;;;9.70;99.90;;;;;;5094257;28;20239;-78
2023/05/29 04:26:44;;;;;;;12.50;8.40;;;9.80;99.90;;;;;;5093828;28;20658;-78
2023/05/29 04:29:13;;;;;;;12.87;8.63;;;9.80;99.90;;;;;;5094491;28;20252;-78
2023/05/29 04:31:41;;;;;;;13.40;8.80;;;9.90;99.90;;;;;;5094594;28;20214;-76
2023/05/29 04:34:10;;;;;;;12.77;8.93;;;10.00;99.90;;;;;;5094258;28;20213;-77
2023/05/29 04:36:38;;;;;;;10.53;8.00;;;10.10;99.90;;;;;;5085905;28;20238;-77
2023/05/29 04:39:08;;;;;;;11.43;8.50;;;10.20;99.90;;;;;;5093615;28;20218;-76
2023/05/29 04:41:37;;;;;;;12.97;8.03;;;10.30;99.90;;;;;;5093875;28;20698;-77
2023/05/29 04:44:06;;;;;;;12.40;7.70;;;10.40;99.90;;;;;;5093924;28;20420;-77
2023/05/29 04:46:34;;;;;;;12.30;8.30;;;10.50;99.90;;;;;;5093967;28;20329;-75
2023/05/29 04:49:04;;;;;;;10.93;7.67;;;10.60;99.90;;;;;;5093592;28;20732;-77
2023/05/29 04:51:32;;;;;;;10.90;6.97;;;10.60;99.90;;;;;;5093771;28;20211;-75
2023/05/29 04:54:01;;;;;;;8.93;7.57;;;10.70;99.90;;;;;;5096789;28;20213;-77
2023/05/29 04:56:30;;;;;;;12.17;7.83;;;10.80;99.90;;;;;;5095069;28;20260;-78
2023/05/29 04:58:59;;;;;;;11.63;8.20;;;10.90;99.90;;;;;;5107337;28;20202;-77
2023/05/29 05:01:27;;;;;;;10.27;6.70;;;11.00;99.90;;;;;;5114110;28;20664;-76
2023/05/29 05:03:55;;;;;;;10.83;7.03;;;11.20;99.90;;;;;;5113729;28;20211;-78
2023/05/29 05:06:25;;;;;;;11.73;7.07;;;11.30;99.90;;;;;;5114012;28;20667;-79
2023/05/29 05:08:53;;;;;;;12.43;6.77;;;11.50;99.90;;;;;;5112856;28;20249;-77
2023/05/29 05:11:23;;;;;;;9.83;6.90;;;11.70;99.90;;;;;;5113949;28;20256;-79
2023/05/29 05:13:52;;;;;;;9.30;6.47;;;11.80;99.90;;;;;;5113842;28;20267;-79
2023/05/29 05:16:20;;;;;;;11.00;6.00;;;11.90;99.90;;;;;;5111556;28;20202;-78
2023/05/29 05:18:48;;;;;;;8.13;6.07;;;12.10;99.90;;;;;;5093760;28;20218;-78
2023/05/29 05:21:16;;;;;;;9.63;6.17;;;12.20;99.90;;;;;;5093771;28;20600;-78
2023/05/29 05:23:46;;;;;;;11.80;6.77;;;12.30;99.90;;;;;;5092886;28;20203;-78
2023/05/29 05:26:26;;;;;;;8.00;6.00;;;12.50;99.90;;;;;;5093111;28;20318;-78
2023/05/29 05:28:56;;;;;;;10.33;6.27;;;12.60;99.90;;;;;;5093441;28;20219;-78
2023/05/29 05:31:24;;;;;;;10.67;6.07;;;12.80;99.90;;;;;;5097562;28;20207;-77
2023/05/29 05:33:52;;;;;;;9.37;6.00;;;12.80;99.90;;;;;;5093133;28;20210;-78
2023/05/29 05:36:21;;;;;;;9.20;5.50;;;13.00;99.90;;;;;;5093094;28;20214;-76
2023/05/29 05:38:49;;;;;;;8.43;5.97;;;13.10;99.90;;;;;;5093473;28;20206;-78
2023/05/29 05:41:17;;;;;;;8.43;6.30;;;13.20;99.90;;;;;;5093266;28;20280;-80
2023/05/29 05:43:45;;;;;;;9.63;6.00;;;13.50;99.90;;;;;;5092912;28;20203;-77
2023/05/29 05:46:15;;;;;;;7.13;5.43;;;13.70;99.90;;;;;;5092928;28;20694;-77
2023/05/29 05:48:43;;;;;;;10.83;6.07;;;14.00;99.90;;;;;;5093000;28;20203;-78
2023/05/29 05:51:11;;;;;;;8.67;5.10;;;14.40;99.90;;;;;;5092947;28;20207;-78
2023/05/29 05:53:40;;;;;;;7.20;4.93;;;15.20;99.90;;;;;;5096479;28;20332;-77
2023/05/29 05:56:08;;;;;;;8.97;5.30;;;16.50;99.90;;;;;;5112982;28;20206;-77
2023/05/29 05:58:36;;;;;;;8.63;5.40;;;17.80;99.90;;;;;;5113246;28;20321;-78
2023/05/29 06:01:06;;;;;;;6.73;4.70;;;18.80;99.90;;;;;;5109379;28;20222;-76
2023/05/29 06:03:37;;;;;;;6.37;4.60;;;19.60;97.30;;;;;;5092879;28;20242;-75
2023/05/29 06:06:07;;;;;;;7.67;4.67;;;20.20;95.30;;;;;;5092872;28;20690;-78
2023/05/29 06:08:35;;;;;;;8.50;4.70;;;21.30;93.30;;;;;;5092364;28;20305;-77
2023/05/29 06:11:04;;;;;;;9.03;4.97;;;22.30;91.10;;;;;;5092527;28;20258;-75
2023/05/29 06:13:32;;;;;;;9.27;4.93;;;22.80;82.90;;;;;;5092056;28;20577;-78
2023/05/29 06:16:01;;;;;;;7.03;4.60;;;23.20;81.10;;;;;;5092548;28;20555;-77
2023/05/29 06:18:29;;;;;;;5.67;4.43;;;24.00;78.60;;;;;;5092353;28;20668;-76
2023/05/29 06:20:59;;;;;;;7.17;4.80;;;24.20;73.80;;;;;;5092595;28;20221;-76
2023/05/29 06:23:28;;;;;;;6.80;4.90;;;23.80;68.80;;;;;;5092192;28;20195;-76
2023/05/29 06:25:56;;;;;;;6.83;4.73;;;24.00;71.40;;;;;;5093358;28;20291;-76
2023/05/29 06:28:25;;;;;;;5.72;4.57;;;24.70;70.30;;;;;;5112851;28;20309;-76
2023/05/29 06:30:53;;;;;;;7.40;4.63;;;24.50;65.00;;;;;;5112645;28;20222;-76
2023/05/29 06:33:21;;;;;;;5.88;4.90;;;24.70;62.00;;;;;;5112385;28;20210;-76
2023/05/29 06:35:50;;;;;;;9.00;4.75;;;25.40;60.00;;;;;;5101256;28;20296;-77
2023/05/29 06:38:19;;;;;;;9.73;5.40;;;25.20;59.30;;;;;;5092125;28;20680;-76
2023/05/29 06:40:47;;;;;;;6.93;4.45;;;24.40;58.30;;;;;;5092362;28;20214;-76
2023/05/29 06:43:16;;;;;;;7.07;4.90;;;25.40;59.70;;;;;;5091943;28;20211;-75
2023/05/29 06:45:44;;;;;;;6.97;4.47;;;25.00;62.10;;;;;;5112360;28;20575;-77
2023/05/29 06:48:12;;;;;;;8.10;5.28;;;26.00;58.60;;;;;;5104897;28;20199;-76
2023/05/29 06:50:40;;;;;;;7.68;5.00;;;26.50;57.60;;;;;;5091845;28;20227;-76
2023/05/29 06:53:08;;;;;;;6.93;4.60;;;26.80;55.90;;;;;;5111182;28;20206;-75
2023/05/29 06:55:40;;;;;;;10.25;4.97;;;27.60;55.40;;;;;;5109470;28;20306;-76
2023/05/29 06:58:11;;;;;;;6.70;4.55;;;26.80;55.50;;;;;;5092495;28;20559;-76
2023/05/29 07:00:39;;;;;;;8.18;4.70;;;27.60;55.20;;;;;;5092060;28;20226;-77
2023/05/29 07:03:07;;;;;;;6.38;4.78;;;27.60;51.10;;;;;;5091364;28;20215;-76
2023/05/29 07:05:36;;;;;;;7.57;4.47;;;26.60;54.50;;;;;;5092101;28;20211;-78
2023/05/29 07:08:04;;;;;;;7.80;4.50;;;27.00;52.60;;;;;;5092045;28;20206;-77
2023/05/29 07:10:32;;;;;;;6.55;4.25;;;27.00;53.30;;;;;;5091598;28;20320;-76
2023/05/29 07:13:02;;;;;;;7.25;4.80;;;27.70;52.20;;;;;;5091282;28;20199;-76
2023/05/29 07:15:30;;;;;;;6.60;4.72;;;27.30;50.20;;;;;;5091927;28;20203;-77
2023/05/29 07:17:58;;;;;;;6.55;4.47;;;27.30;51.30;;;;;;5091912;28;20626;-75
2023/05/29 07:20:26;;;;;;;7.72;4.72;;;27.90;52.90;;;;;;5091858;28;20203;-79
2023/05/29 07:22:54;;;;;;;7.40;4.43;;;28.70;52.00;;;;;;5091357;28;20211;-76
2023/05/29 07:25:22;;;;;;;6.82;4.82;;;29.50;50.00;;;;;;5091790;28;20206;-76
2023/05/29 07:27:50;;;;;;;4.78;4.22;;;28.70;47.10;;;;;;5091475;28;20574;-76
2023/05/29 07:30:20;;;;;;;8.10;4.72;;;29.20;49.40;;;;;;5091548;28;20261;-76
2023/05/29 07:32:48;;;;;;;8.85;4.45;;;29.80;45.60;;;;;;5091352;28;20743;-77
2023/05/29 07:35:16;;;;;;;8.23;4.55;;;29.70;43.80;;;;;;5091539;28;20210;-77
2023/05/29 07:37:44;;;;;;;6.28;3.92;;;29.10;43.80;;;;;;5091178;28;20254;-77
2023/05/29 07:40:13;;;;;;;6.88;4.85;;;28.80;46.00;;;;;;5091729;28;20211;-76
2023/05/29 07:42:41;;;;;;;9.60;4.30;;;29.00;44.20;;;;;;5091493;28;20276;-76
2023/05/29 07:45:11;;;;;;;7.90;4.40;;;29.70;42.70;;;;;;5091412;28;20211;-78
2023/05/29 07:47:40;;;;;;;6.55;4.20;;;29.90;41.30;;;;;;5092207;28;20238;-76
2023/05/29 07:50:10;;;;;;;6.80;4.43;;;29.40;42.20;;;;;;5101079;28;20233;-76
2023/05/29 07:52:38;;;;;;;7.43;4.68;;;29.50;44.00;;;;;;5115433;28;20263;-75
2023/05/29 07:55:06;;;;;;;6.75;4.47;;;30.10;41.10;;;;;;5108411;28;20234;-75
2023/05/29 07:57:35;;;;;;;6.78;4.60;;;29.50;42.50;;;;;;5095152;28;20210;-78
2023/05/29 08:00:07;;;;;;;6.50;4.47;;;30.20;41.50;;;;;;5095259;28;20267;-75
2023/05/29 08:02:36;;;;;;;7.60;4.43;;;30.20;41.10;;;;;;5094746;28;20218;-77
2023/05/29 08:05:07;;;;;;;5.93;4.07;;;30.00;43.30;;;;;;5094950;28;20213;-78
2023/05/29 08:07:36;;;;;;;7.03;4.20;;;29.50;40.60;;;;;;5094989;28;20206;-76
2023/05/29 08:10:06;;;;;;;5.78;4.47;;;29.20;43.20;;;;;;5095004;28;20211;-74
2023/05/29 08:12:35;;;;;;;6.10;4.50;;;29.40;43.30;;;;;;5094304;28;20207;-76
2023/05/29 08:15:03;;;;;;;7.32;4.68;;;30.60;40.50;;;;;;5095159;28;20238;-75
2023/05/29 08:17:31;;;;;;;9.52;4.70;;;30.50;39.90;;;;;;5094676;28;20211;-76
2023/05/29 08:19:59;;;;;;;10.25;4.90;;;30.20;39.70;;;;;;5094800;28;20202;-75
2023/05/29 08:22:31;;;;;;;6.13;4.38;;;30.10;39.40;;;;;;5093964;28;20206;-75
2023/05/29 08:24:59;;;;;;;6.25;4.13;;;30.20;42.30;;;;;;5094825;28;20211;-77
2023/05/29 08:27:28;;;;;;;7.63;4.65;;;29.80;42.20;;;;;;5094147;28;20777;-76
2023/05/29 08:29:56;;;;;;;7.40;4.60;;;30.10;41.10;;;;;;5094372;28;20597;-77
2023/05/29 08:32:24;;;;;;;8.73;4.18;;;30.80;41.70;;;;;;5094149;28;20259;-77
2023/05/29 08:34:52;;;;;;;6.30;4.43;;;30.40;40.70;;;;;;5094364;28;20431;-75
2023/05/29 08:37:20;;;;;;;7.13;4.70;;;30.10;43.40;;;;;;5099851;28;20660;-78
2023/05/29 08:39:50;;;;;;;7.60;5.00;;;31.00;37.30;;;;;;5115165;28;20210;-77
2023/05/29 08:42:23;;;;;;;7.95;4.50;;;30.90;37.20;;;;;;5114364;28;20665;-76
2023/05/29 08:44:55;;;;;;;6.05;4.40;;;30.30;40.20;;;;;;5110464;28;20240;-75
2023/05/29 08:47:27;;;;;;;7.70;4.00;;;29.80;39.90;;;;;;5094366;28;20615;-75
2023/05/29 08:49:55;;;;;;;7.25;4.40;;;30.70;41.30;;;;;;5110380;28;20682;-79
2023/05/29 08:52:26;;;;;;;6.13;4.50;;;31.30;37.70;;;;;;5114198;28;20327;-76
2023/05/29 08:54:55;;;;;;;6.78;4.45;;;30.90;35.60;;;;;;5098508;28;20570;-74
2023/05/29 08:57:24;;;;;;;6.40;4.20;;;30.60;39.50;;;;;;5094247;28;20211;-75
2023/05/29 08:59:53;;;;;;;8.25;4.38;;;31.00;38.30;;;;;;5093862;28;20256;-75
2023/05/29 09:02:21;;;;;;;7.03;4.28;;;31.40;39.10;;;;;;5093360;28;20230;-78
2023/05/29 09:04:49;;;;;;;6.32;4.78;;;30.90;37.90;;;;;;5094060;28;20211;-74
2023/05/29 09:07:18;;;;;;;6.07;4.43;;;30.90;36.40;;;;;;5094018;28;20206;-76
2023/05/29 09:09:47;;;;;;;5.72;4.40;;;30.40;38.50;;;;;;5094015;28;20211;-78
2023/05/29 09:12:17;;;;;;;7.93;4.38;;;30.50;40.50;;;;;;5093238;28;20261;-75
2023/05/29 09:14:47;;;;;;;6.63;4.25;;;30.50;38.80;;;;;;5093509;28;20202;-76
2023/05/29 09:17:16;;;;;;;7.95;4.53;;;31.50;38.70;;;;;;5093412;28;20256;-75
2023/05/29 09:19:44;;;;;;;5.25;4.10;;;31.70;38.00;;;;;;5093461;28;20551;-76
2023/05/29 09:22:14;;;;;;;5.32;3.92;;;30.60;35.50;;;;;;5113404;28;20202;-76
2023/05/29 09:24:47;;;;;;;7.43;4.43;;;29.80;40.90;;;;;;5114150;28;20202;-75
2023/05/29 09:27:15;;;;;;;7.15;4.55;;;30.60;37.60;;;;;;5113849;28;20237;-76
2023/05/29 09:29:46;;;;;;;6.45;4.13;;;31.60;36.20;;;;;;5109433;28;20660;-77
2023/05/29 09:32:16;;;;;;;7.80;4.30;;;32.30;34.80;;;;;;5093148;28;20211;-76
2023/05/29 09:34:45;;;;;;;6.90;4.18;;;32.10;35.70;;;;;;5094070;28;20610;-76
2023/05/29 09:37:13;;;;;;;9.05;4.90;;;32.00;35.60;;;;;;5092923;28;20225;-78
2023/05/29 09:39:47;;;;;;;7.38;4.28;;;31.40;33.20;;;;;;5093163;28;20668;-76
2023/05/29 09:42:16;;;;;;;6.30;4.30;;;32.10;35.70;;;;;;5092864;28;20309;-75
2023/05/29 09:44:51;;;;;;;6.95;4.57;;;32.40;33.10;;;;;;5093251;28;20235;-76
2023/05/29 09:47:20;;;;;;;8.00;4.40;;;32.50;34.70;;;;;;5098891;28;20670;-75
2023/05/29 09:49:49;;;;;;;6.38;4.45;;;32.20;33.30;;;;;;5095690;28;20631;-76
2023/05/29 09:52:22;;;;;;;8.88;5.95;;;31.30;31.80;;;;;;5092727;28;20660;-77
2023/05/29 09:54:52;;;;;;;7.90;4.30;;;30.70;37.80;;;;;;5093186;28;20206;-76
2023/05/29 09:57:23;;;;;;;5.50;4.10;;;30.40;37.50;;;;;;5092879;28;20221;-76
2023/05/29 09:59:54;;;;;;;6.88;4.13;;;30.20;32.70;;;;;;5093176;28;20210;-76
2023/05/29 10:02:22;;;;;;;7.15;4.28;;;30.30;32.50;;;;;;5092436;28;20226;-75
2023/05/29 10:04:50;;;;;;;6.72;4.07;;;31.00;32.60;;;;;;5093012;28;20306;-77
2023/05/29 10:07:26;;;;;;;7.43;4.68;;;31.20;31.90;;;;;;5092614;28;20548;-77
2023/05/29 10:10:00;;;;;;;6.95;4.32;;;31.50;32.20;;;;;;5092293;28;20210;-77
2023/05/29 10:12:29;;;;;;;8.90;4.80;;;30.40;34.60;;;;;;5092250;28;20191;-77
2023/05/29 10:15:01;;;;;;;10.45;4.70;;;29.40;35.10;;;;;;5092454;28;20306;-77
2023/05/29 10:17:34;;;;;;;7.43;4.28;;;28.40;38.30;;;;;;5092499;28;20231;-76
2023/05/29 10:20:06;;;;;;;5.93;4.05;;;29.10;35.80;;;;;;5092514;28;20218;-77
2023/05/29 10:22:37;;;;;;;5.97;4.22;;;29.80;34.80;;;;;;5092520;28;20222;-76
2023/05/29 10:25:08;;;;;;;5.38;3.92;;;29.30;35.00;;;;;;5092910;28;20214;-77
2023/05/29 10:27:36;;;;;;;7.25;4.38;;;29.90;37.30;;;;;;5092445;28;20661;-76
2023/05/29 10:30:13;;;;;;;8.98;4.32;;;29.90;35.60;;;;;;5092979;28;20264;-76
2023/05/29 10:32:55;;;;;;;7.82;4.53;;;29.90;35.70;;;;;;5092203;28;20199;-77
2023/05/29 10:35:32;;;;;;;6.32;4.25;;;28.30;37.80;;;;;;5093613;28;20620;-77
2023/05/29 10:38:11;;;;;;;8.73;4.50;;;28.10;36.00;;;;;;5093245;28;20206;-77
2023/05/29 10:40:39;;;;;;;7.53;4.10;;;28.60;35.80;;;;;;5068789;28;20198;-78
2023/05/29 10:43:10;;;;;;;7.35;4.10;;;29.30;38.30;;;;;;5093469;28;20230;-77
2023/05/29 10:45:52;;;;;;;6.38;4.50;;;29.90;35.60;;;;;;5096412;28;20202;-77
2023/05/29 10:48:43;;;;;;;7.78;4.40;;;29.50;34.70;;;;;;5112958;28;20838;-78
2023/05/29 10:51:28;;;;;;;8.32;4.40;;;29.00;35.50;;;;;;5101559;28;20218;-76
2023/05/29 10:53:57;;;;;;;5.93;4.28;;;30.20;33.80;;;;;;5092032;28;20664;-77
2023/05/29 10:56:29;;;;;;;6.30;4.10;;;30.40;32.00;;;;;;5092950;28;20260;-77
2023/05/29 10:59:00;;;;;;;6.53;4.10;;;30.70;30.60;;;;;;5092380;28;20206;-77
2023/05/29 11:01:31;;;;;;;5.90;4.18;;;29.80;32.60;;;;;;5092806;28;20206;-76
2023/05/29 11:04:32;;;;;;;6.68;4.13;;;29.40;34.60;;;;;;5091975;28;20211;-75
2023/05/29 11:07:03;;;;;;;8.48;4.00;;;29.70;36.40;;;;;;5092119;28;20210;-77
2023/05/29 11:09:35;;;;;;;7.20;4.45;;;30.20;34.60;;;;;;5092600;28;20256;-78
2023/05/29 11:12:33;;;;;;;5.40;4.10;;;30.30;35.10;;;;;;5091948;28;20670;-76
2023/05/29 11:15:06;;;;;;;4.47;3.70;;;30.30;33.70;;;;;;5092365;28;20295;-75
2023/05/29 11:17:45;;;;;;;7.35;4.30;;;30.20;35.80;;;;;;5092240;28;20671;-76
2023/05/29 11:20:30;;;;;;;7.13;4.20;;;30.00;34.60;;;;;;5091881;28;20183;-74
2023/05/29 11:23:03;;;;;;;5.25;3.80;;;29.20;34.10;;;;;;5094380;28;20249;-77
2023/05/29 11:25:35;;;;;;;7.22;4.25;;;28.40;35.10;;;;;;5096325;28;20376;-75
2023/05/29 11:28:08;;;;;;;6.45;4.10;;;28.00;36.80;;;;;;5097184;28;20213;-76
2023/05/29 11:30:43;;;;;;;6.93;4.35;;;27.80;37.60;;;;;;5096024;28;20195;-77
2023/05/29 11:33:21;;;;;;;6.85;4.35;;;28.00;35.80;;;;;;5096010;28;20210;-78
2023/05/29 11:35:56;;;;;;;7.90;4.75;;;28.00;39.40;;;;;;5095298;28;20242;-76
2023/05/29 11:38:24;;;;;;;7.22;4.35;;;27.90;34.80;;;;;;5095672;28;20232;-76
2023/05/29 11:40:54;;;;;;;6.90;4.43;;;28.00;35.80;;;;;;5095880;28;20207;-77
2023/05/29 11:43:23;;;;;;;6.35;4.13;;;28.00;36.40;;;;;;5094926;28;20368;-75
2023/05/29 11:45:51;;;;;;;5.82;3.88;;;27.60;34.10;;;;;;5096720;28;20263;-76
2023/05/29 11:48:21;;;;;;;6.18;4.30;;;27.50;36.00;;;;;;5095349;28;20621;-76
2023/05/29 11:50:49;;;;;;;6.50;4.40;;;26.90;37.10;;;;;;5095440;28;20210;-75
2023/05/29 11:53:18;;;;;;;9.93;4.50;;;26.60;36.40;;;;;;5094691;28;20240;-77
2023/05/29 11:55:46;;;;;;;7.33;4.30;;;26.40;38.70;;;;;;5095196;28;20276;-78
2023/05/29 11:58:16;;;;;;;6.40;4.10;;;26.70;36.10;;;;;;5095648;28;20665;-77
2023/05/29 12:00:46;;;;;;;6.40;4.10;;;26.80;36.70;;;;;;5097032;28;20203;-74
2023/05/29 12:03:14;;;;;;;6.27;4.10;;;26.80;39.50;;;;;;5095552;28;20676;-78
2023/05/29 12:05:48;;;;;;;5.53;4.03;;;26.80;38.10;;;;;;5095069;28;20279;-76
2023/05/29 12:08:17;;;;;;;6.50;4.40;;;26.80;38.70;;;;;;5095468;28;20256;-76
2023/05/29 12:10:49;;;;;;;6.47;4.13;;;26.70;39.50;;;;;;5095201;28;20253;-76
2023/05/29 12:13:20;;;;;;;6.60;4.10;;;26.90;39.60;;;;;;5113618;28;20264;-76
2023/05/29 12:15:50;;;;;;;6.17;4.13;;;26.30;39.30;;;;;;5115827;28;20201;-74
2023/05/29 12:18:18;;;;;;;6.30;4.10;;;25.90;40.60;;;;;;5116242;28;20206;-76
2023/05/29 12:20:48;;;;;;;5.33;3.97;;;26.20;42.70;;;;;;5106218;28;20252;-77
2023/05/29 12:23:20;;;;;;;6.00;4.30;;;26.20;42.90;;;;;;5094708;28;20757;-77
2023/05/29 12:25:49;;;;;;;6.00;4.03;;;25.80;40.70;;;;;;5099479;28;20253;-77
2023/05/29 12:28:18;;;;;;;6.60;4.30;;;25.70;41.10;;;;;;5100518;28;20199;-78
2023/05/29 12:30:49;;;;;;;6.93;4.30;;;26.00;39.50;;;;;;5098566;28;20203;-79
2023/05/29 12:33:29;;;;;;;8.27;4.30;;;26.10;42.50;;;;;;5096184;28;20215;-76
2023/05/29 12:36:07;;;;;;;5.77;4.47;;;26.30;43.60;;;;;;5097716;28;20286;-77
2023/05/29 12:38:48;;;;;;;5.77;4.33;;;26.20;40.70;;;;;;5097963;28;20233;-76
2023/05/29 12:41:26;;;;;;;6.13;4.10;;;26.20;38.10;;;;;;5095221;28;20214;-77
2023/05/29 12:43:56;;;;;;;7.30;4.10;;;26.20;40.10;;;;;;5106825;28;20214;-76
2023/05/29 12:46:25;;;;;;;7.43;4.47;;;26.20;37.70;;;;;;5094603;28;20210;-77
2023/05/29 12:48:54;;;;;;;6.83;4.40;;;25.80;37.60;;;;;;5094118;28;20306;-75
2023/05/29 12:51:28;;;;;;;6.67;4.37;;;25.80;41.20;;;;;;5094166;28;20293;-78
2023/05/29 12:53:58;;;;;;;6.40;4.40;;;25.60;40.40;;;;;;5094066;28;20198;-75
2023/05/29 12:56:27;;;;;;;5.20;4.10;;;26.00;42.30;;;;;;5094606;28;20845;-75
2023/05/29 12:58:55;;;;;;;6.23;4.53;;;26.20;40.00;;;;;;5094350;28;20218;-77
2023/05/29 13:01:24;;;;;;;5.37;4.30;;;26.30;40.00;;;;;;5094237;28;20207;-76